createdAt,value
2022-11-28T00:01:17.998Z,8.69
2022-11-28T00:03:45.791Z,8.72
2022-11-28T00:06:13.608Z,8.71
2022-11-28T00:08:41.493Z,8.72
2022-11-28T00:11:12.313Z,8.74
2022-11-28T00:13:42.094Z,8.73
2022-11-28T00:16:13.980Z,8.72
2022-11-28T00:18:41.747Z,8.70
2022-11-28T00:21:12.409Z,8.69
2022-11-28T00:23:40.341Z,8.70
2022-11-28T00:26:10.972Z,8.71
2022-11-28T00:28:40.153Z,8.71
2022-11-28T00:31:13.491Z,8.75
2022-11-28T00:33:41.187Z,8.74
2022-11-28T00:36:09.423Z,8.75
2022-11-28T00:38:37.182Z,8.76
2022-11-28T00:41:06.724Z,8.75
2022-11-28T00:43:35.031Z,8.75
2022-11-28T00:46:03.147Z,8.76
2022-11-28T00:48:33.409Z,8.70
2022-11-28T00:51:07.815Z,8.70
2022-11-28T00:53:36.163Z,8.75
2022-11-28T00:56:05.452Z,8.76
2022-11-28T00:58:33.274Z,8.79
2022-11-28T01:01:01.434Z,8.77
2022-11-28T01:03:29.159Z,8.77
2022-11-28T01:05:58.264Z,8.78
2022-11-28T01:08:26.113Z,8.79
2022-11-28T01:10:53.842Z,8.81
2022-11-28T01:13:21.560Z,8.82
2022-11-28T01:15:49.350Z,8.80
2022-11-28T01:18:17.189Z,8.81
2022-11-28T01:20:44.967Z,8.85
2022-11-28T01:23:14.202Z,8.88
2022-11-28T01:25:41.900Z,8.91
2022-11-28T01:28:09.621Z,8.93
2022-11-28T01:30:37.370Z,8.92
2022-11-28T01:33:05.062Z,8.93
2022-11-28T01:35:32.808Z,8.94
2022-11-28T01:38:00.570Z,8.96
2022-11-28T01:40:29.801Z,8.95
2022-11-28T01:42:57.593Z,8.95
2022-11-28T01:45:27.813Z,8.98
2022-11-28T01:47:59.475Z,8.99
2022-11-28T01:50:28.979Z,9.00
2022-11-28T01:53:01.193Z,8.98
2022-11-28T01:55:38.836Z,8.99
2022-11-28T01:58:07.644Z,8.99
2022-11-28T02:00:35.659Z,9.02
2022-11-28T02:03:07.702Z,9.02
2022-11-28T02:05:35.407Z,8.96
2022-11-28T02:08:03.733Z,8.94
2022-11-28T02:10:45.061Z,8.98
2022-11-28T02:13:28.683Z,8.96
2022-11-28T02:16:11.944Z,8.96
2022-11-28T02:18:58.295Z,8.96
2022-11-28T02:21:39.593Z,8.99
2022-11-28T02:24:29.338Z,9.00
2022-11-28T02:27:14.563Z,8.98
2022-11-28T02:30:15.402Z,8.96
2022-11-28T02:33:04.034Z,8.94
2022-11-28T02:35:39.325Z,8.90
2022-11-28T02:38:18.309Z,8.92
2022-11-28T02:40:56.071Z,8.92
2022-11-28T02:43:32.754Z,8.83
2022-11-28T02:46:05.338Z,8.83
2022-11-28T02:48:41.154Z,8.76
2022-11-28T02:51:15.381Z,8.69
2022-11-28T02:53:46.719Z,8.69
2022-11-28T02:56:14.831Z,8.64
2022-11-28T02:58:42.567Z,8.64
2022-11-28T03:01:19.403Z,8.63
2022-11-28T03:04:03.285Z,8.62
2022-11-28T03:06:44.248Z,8.61
2022-11-28T03:09:45.566Z,8.60
2022-11-28T03:12:26.019Z,8.57
2022-11-28T03:14:56.197Z,8.58
2022-11-28T03:17:33.371Z,8.54
2022-11-28T03:20:16.794Z,8.60
2022-11-28T03:22:55.949Z,8.62
2022-11-28T03:25:29.884Z,8.61
2022-11-28T03:28:03.335Z,8.59
2022-11-28T03:30:35.625Z,8.60
2022-11-28T03:33:04.929Z,8.61
2022-11-28T03:35:40.456Z,8.59
2022-11-28T03:38:12.448Z,8.56
2022-11-28T03:40:44.909Z,8.56
2022-11-28T03:43:14.769Z,8.51
2022-11-28T03:45:46.297Z,8.52
2022-11-28T03:48:18.613Z,8.50
2022-11-28T03:50:52.780Z,8.49
2022-11-28T03:53:26.036Z,8.51
2022-11-28T03:56:00.896Z,8.51
2022-11-28T03:58:36.333Z,8.48
2022-11-28T04:01:12.064Z,8.46
2022-11-28T04:03:46.669Z,8.46
2022-11-28T04:06:22.030Z,8.47
2022-11-28T04:08:59.434Z,8.48
2022-11-28T04:11:38.364Z,8.50
2022-11-28T04:14:13.388Z,8.46
2022-11-28T04:16:53.619Z,8.45
2022-11-28T04:19:29.821Z,8.42
2022-11-28T04:22:04.064Z,8.39
2022-11-28T04:24:35.845Z,8.41
2022-11-28T04:27:07.510Z,8.42
2022-11-28T04:29:39.169Z,8.41
2022-11-28T04:32:09.129Z,8.44
2022-11-28T04:34:38.627Z,8.41
2022-11-28T04:37:10.156Z,8.44
2022-11-28T04:39:39.229Z,8.45
2022-11-28T04:42:12.525Z,8.49
2022-11-28T04:44:47.182Z,8.48
2022-11-28T04:47:15.571Z,8.47
2022-11-28T04:49:43.563Z,8.46
2022-11-28T04:52:20.161Z,8.45
2022-11-28T04:54:57.507Z,8.42
2022-11-28T04:57:31.343Z,8.42
2022-11-28T05:00:02.138Z,8.40
2022-11-28T05:02:32.524Z,8.40
2022-11-28T05:05:09.551Z,8.39
2022-11-28T05:07:38.857Z,8.40
2022-11-28T05:10:08.151Z,8.38
2022-11-28T05:12:35.924Z,8.36
2022-11-28T05:15:03.782Z,8.35
2022-11-28T05:17:31.576Z,8.34
2022-11-28T05:19:59.356Z,8.32
2022-11-28T05:22:32.220Z,8.33
2022-11-28T05:28:51.589Z,8.33
2022-11-28T05:31:21.490Z,8.31
2022-11-28T05:33:49.472Z,8.30
2022-11-28T05:36:18.968Z,8.27
2022-11-28T05:38:46.883Z,8.27
2022-11-28T05:41:23.310Z,8.27
2022-11-28T05:43:51.422Z,8.28
2022-11-28T05:46:20.325Z,8.24
2022-11-28T05:48:48.813Z,8.24
2022-11-28T05:51:16.898Z,8.27
2022-11-28T05:53:46.297Z,8.29
2022-11-28T05:56:16.102Z,8.29
2022-11-28T05:58:46.917Z,8.30
2022-11-28T06:01:16.815Z,8.29
2022-11-28T06:03:45.617Z,8.34
2022-11-28T06:06:15.441Z,8.35
2022-11-28T06:08:44.001Z,8.34
2022-11-28T06:11:14.923Z,8.36
2022-11-28T06:13:43.340Z,8.32
2022-11-28T06:16:17.618Z,8.32
2022-11-28T06:18:47.767Z,8.32
2022-11-28T06:21:19.771Z,8.30
2022-11-28T06:23:50.891Z,8.28
2022-11-28T06:26:21.918Z,8.25
2022-11-28T06:28:50.106Z,8.28
2022-11-28T06:31:23.730Z,8.28
2022-11-28T06:33:52.580Z,8.27
2022-11-28T06:36:21.777Z,8.26
2022-11-28T06:38:49.992Z,8.23
2022-11-28T06:41:19.816Z,8.28
2022-11-28T06:43:47.745Z,8.27
2022-11-28T06:46:18.140Z,8.27
2022-11-28T06:48:49.542Z,8.27
2022-11-28T06:51:18.344Z,8.26
2022-11-28T06:53:46.397Z,8.27
2022-11-28T06:56:16.289Z,8.30
2022-11-28T06:58:45.220Z,8.30
2022-11-28T07:01:15.584Z,8.32
2022-11-28T07:03:44.374Z,8.32
2022-11-28T07:06:14.773Z,8.35
2022-11-28T07:08:43.287Z,8.35
2022-11-28T07:11:13.304Z,8.32
2022-11-28T07:13:41.992Z,8.34
2022-11-28T07:16:15.741Z,8.35
2022-11-28T07:18:43.959Z,8.32
2022-11-28T07:21:14.821Z,8.34
2022-11-28T07:23:44.185Z,8.32
2022-11-28T07:26:15.917Z,8.31
2022-11-28T07:28:44.581Z,8.28
2022-11-28T07:31:14.486Z,8.31
2022-11-28T07:33:43.932Z,8.32
2022-11-28T07:36:16.001Z,8.34
2022-11-28T07:38:44.421Z,8.34
2022-11-28T07:41:14.375Z,8.31
2022-11-28T07:43:44.028Z,8.33
2022-11-28T07:46:14.138Z,8.34
2022-11-28T07:48:42.412Z,8.34
2022-11-28T07:51:12.339Z,8.29
2022-11-28T07:53:42.513Z,8.31
2022-11-28T07:56:13.926Z,8.35
2022-11-28T07:58:42.939Z,8.37
2022-11-28T08:01:11.729Z,8.34
2022-11-28T08:03:40.232Z,8.36
2022-11-28T08:06:09.301Z,8.39
2022-11-28T08:08:37.158Z,8.36
2022-11-28T08:11:08.198Z,8.39
2022-11-28T08:13:36.845Z,8.39
2022-11-28T08:16:06.652Z,8.44
2022-11-28T08:18:35.065Z,8.47
2022-11-28T08:21:07.338Z,8.47
2022-11-28T08:23:36.364Z,8.49
2022-11-28T08:26:04.325Z,8.50
2022-11-28T08:28:33.901Z,8.49
2022-11-28T08:31:09.048Z,8.47
2022-11-28T08:33:36.807Z,8.49
2022-11-28T08:36:05.716Z,8.49
2022-11-28T08:38:33.709Z,8.51
2022-11-28T08:41:02.987Z,8.47
2022-11-28T08:43:30.832Z,8.48
2022-11-28T08:45:59.992Z,8.49
2022-11-28T08:48:27.734Z,8.51
2022-11-28T08:50:55.504Z,8.55
2022-11-28T08:53:23.361Z,8.58
2022-11-28T08:55:55.035Z,8.59
2022-11-28T08:58:22.823Z,8.56
2022-11-28T09:00:50.638Z,8.55
2022-11-28T09:03:21.300Z,8.55
2022-11-28T09:05:52.169Z,8.57
2022-11-28T09:08:21.738Z,8.57
2022-11-28T09:10:49.453Z,8.62
2022-11-28T09:13:17.215Z,8.62
2022-11-28T09:15:51.149Z,8.65
2022-11-28T09:18:21.691Z,8.68
2022-11-28T09:20:49.491Z,8.68
2022-11-28T09:23:17.286Z,8.66
2022-11-28T09:25:45.161Z,8.66
2022-11-28T09:28:12.934Z,8.65
2022-11-28T09:30:40.688Z,8.66
2022-11-28T09:33:08.732Z,8.67
2022-11-28T09:35:40.290Z,8.67
2022-11-28T09:38:08.642Z,8.69
2022-11-28T09:40:38.812Z,8.69
2022-11-28T09:43:15.791Z,8.71
2022-11-28T09:45:45.831Z,8.70
2022-11-28T09:48:26.584Z,8.69
2022-11-28T09:51:01.017Z,8.71
2022-11-28T09:53:36.274Z,8.72
2022-11-28T09:56:13.229Z,8.69
2022-11-28T09:58:46.914Z,8.68
2022-11-28T10:01:18.924Z,8.67
2022-11-28T10:03:55.192Z,8.68
2022-11-28T10:06:30.978Z,8.66
2022-11-28T10:09:28.004Z,8.65
2022-11-28T10:12:14.838Z,8.63
2022-11-28T10:15:05.855Z,8.64
2022-11-28T10:17:44.400Z,8.63
2022-11-28T10:20:17.101Z,8.66
2022-11-28T10:22:49.732Z,8.70
2022-11-28T10:25:21.193Z,8.74
2022-11-28T10:27:50.370Z,8.75
2022-11-28T10:30:23.236Z,8.74
2022-11-28T10:32:58.261Z,8.74
2022-11-28T10:35:32.200Z,8.76
2022-11-28T10:38:01.395Z,8.81
2022-11-28T10:40:37.445Z,8.81
2022-11-28T10:43:12.197Z,8.84
2022-11-28T10:45:49.822Z,8.83
2022-11-28T10:48:41.355Z,8.88
2022-11-28T10:51:25.744Z,8.88
2022-11-28T10:54:05.650Z,8.93
2022-11-28T10:56:42.091Z,8.96
2022-11-28T10:59:19.405Z,8.95
2022-11-28T11:01:50.456Z,8.97
2022-11-28T11:04:20.978Z,8.99
2022-11-28T11:07:10.582Z,9.04
2022-11-28T11:09:43.901Z,9.07
2022-11-28T11:12:21.515Z,9.07
2022-11-28T11:14:49.350Z,9.06
2022-11-28T11:17:34.246Z,9.06
2022-11-28T11:20:03.718Z,9.03
2022-11-28T11:22:32.607Z,9.07
2022-11-28T11:25:17.968Z,9.11
2022-11-28T11:27:50.828Z,9.12
2022-11-28T11:30:27.121Z,9.13
2022-11-28T11:32:56.327Z,9.12
2022-11-28T11:35:27.126Z,9.12
2022-11-28T11:38:14.900Z,9.14
2022-11-28T11:40:44.062Z,9.14
2022-11-28T11:43:26.680Z,9.16
2022-11-28T11:46:09.052Z,9.18
2022-11-28T11:48:39.818Z,9.20
2022-11-28T11:51:08.946Z,9.21
2022-11-28T11:53:36.669Z,9.24
2022-11-28T11:56:06.119Z,9.25
2022-11-28T11:58:41.192Z,9.26
2022-11-28T12:01:12.714Z,9.27
2022-11-28T12:03:42.827Z,9.27
2022-11-28T12:06:16.843Z,9.30
2022-11-28T12:08:51.341Z,9.32
2022-11-28T12:11:25.944Z,9.35
2022-11-28T12:13:54.448Z,9.34
2022-11-28T12:16:38.767Z,9.35
2022-11-28T12:19:17.874Z,9.31
2022-11-28T12:21:59.887Z,9.31
2022-11-28T12:24:34.749Z,9.33
2022-11-28T12:27:13.095Z,9.31
2022-11-28T12:29:52.254Z,9.31
2022-11-28T12:32:38.072Z,9.32
2022-11-28T12:35:19.100Z,9.34
2022-11-28T12:38:10.854Z,9.34
2022-11-28T12:40:49.609Z,9.30
2022-11-28T12:43:32.366Z,9.30
2022-11-28T12:46:03.377Z,9.28
2022-11-28T12:48:43.154Z,9.27
2022-11-28T12:51:21.895Z,9.30
2022-11-28T12:54:07.447Z,9.33
2022-11-28T12:56:48.649Z,9.33
2022-11-28T12:59:26.917Z,9.33
2022-11-28T13:02:09.657Z,9.31
2022-11-28T13:05:06.250Z,9.31
2022-11-28T13:07:44.939Z,9.32
2022-11-28T13:10:19.665Z,9.30
2022-11-28T13:12:57.038Z,9.31
2022-11-28T13:15:42.135Z,9.35
2022-11-28T13:18:20.942Z,9.38
2022-11-28T13:20:54.582Z,9.37
2022-11-28T13:23:28.571Z,9.38
2022-11-28T13:26:02.618Z,9.40
2022-11-28T13:28:37.387Z,9.40
2022-11-28T13:31:11.020Z,9.40
2022-11-28T13:33:52.056Z,9.38
2022-11-28T13:39:23.801Z,9.41
2022-11-28T13:42:52.352Z,9.40
2022-11-28T13:44:57.521Z,9.39
2022-11-28T13:47:34.874Z,9.35
2022-11-28T13:50:38.246Z,9.33
2022-11-28T13:53:22.901Z,9.36
2022-11-28T13:55:52.687Z,9.39
2022-11-28T13:58:28.401Z,9.42
2022-11-28T14:01:07.783Z,9.42
2022-11-28T14:03:46.324Z,9.43
2022-11-28T14:06:18.250Z,9.44
2022-11-28T14:08:50.099Z,9.45
2022-11-28T14:11:59.907Z,9.44
2022-11-28T14:14:54.425Z,9.47
2022-11-28T14:17:37.781Z,9.49
2022-11-28T14:20:20.470Z,9.47
2022-11-28T14:22:55.062Z,9.49
2022-11-28T14:25:28.466Z,9.48
2022-11-28T14:27:59.897Z,9.48
2022-11-28T14:30:33.369Z,9.49
2022-11-28T14:33:07.216Z,9.51
2022-11-28T14:36:16.812Z,9.53
2022-11-28T14:38:47.453Z,9.53
2022-11-28T14:41:16.922Z,9.52
2022-11-28T14:43:46.363Z,9.56
2022-11-28T14:46:35.043Z,9.56
2022-11-28T14:49:19.136Z,9.57
2022-11-28T14:52:38.341Z,9.58
2022-11-28T14:55:17.950Z,9.59
2022-11-28T14:57:56.122Z,9.60
2022-11-28T15:00:26.539Z,9.60
2022-11-28T15:03:20.571Z,9.59
2022-11-28T15:05:50.887Z,9.60
2022-11-28T15:08:30.069Z,9.62
2022-11-28T15:11:09.775Z,9.62
2022-11-28T15:13:53.915Z,9.64
2022-11-28T15:16:24.024Z,9.64
2022-11-28T15:18:54.854Z,9.65
2022-11-28T15:21:23.383Z,9.65
2022-11-28T15:23:55.133Z,9.64
2022-11-28T15:26:29.415Z,9.64
2022-11-28T15:29:10.341Z,9.65
2022-11-28T15:31:38.904Z,9.66
2022-11-28T15:34:09.996Z,9.64
2022-11-28T15:36:40.216Z,9.66
2022-11-28T15:39:26.165Z,9.65
2022-11-28T15:41:56.731Z,9.63
2022-11-28T15:44:25.238Z,9.63
2022-11-28T15:46:53.442Z,9.64
2022-11-28T15:49:26.610Z,9.66
2022-11-28T15:51:56.220Z,9.66
2022-11-28T15:54:36.338Z,9.67
2022-11-28T15:57:05.991Z,9.68
2022-11-28T15:59:37.292Z,9.67
2022-11-28T16:02:15.094Z,9.68
2022-11-28T16:04:44.044Z,9.69
2022-11-28T16:07:16.156Z,9.70
2022-11-28T16:09:55.161Z,9.73
2022-11-28T16:12:25.474Z,9.73
2022-11-28T16:14:58.690Z,9.75
2022-11-28T16:17:33.081Z,9.74
2022-11-28T16:20:03.649Z,9.73
2022-11-28T16:22:40.951Z,9.72
2022-11-28T16:25:15.277Z,9.71
2022-11-28T16:27:48.825Z,9.72
2022-11-28T16:30:36.740Z,9.74
2022-11-28T16:33:26.561Z,9.76
2022-11-28T16:35:54.588Z,9.78
2022-11-28T16:38:29.624Z,9.80
2022-11-28T16:41:01.729Z,9.81
2022-11-28T16:43:35.743Z,9.82
2022-11-28T16:46:06.507Z,9.82
2022-11-28T16:48:37.202Z,9.84
2022-11-28T16:51:34.301Z,9.86
2022-11-28T16:54:23.575Z,9.85
2022-11-28T16:56:51.482Z,9.86
2022-11-28T16:59:21.454Z,9.86
2022-11-28T17:01:53.195Z,9.87
2022-11-28T17:04:22.705Z,9.88
2022-11-28T17:06:50.840Z,9.89
2022-11-28T17:09:19.234Z,9.90
2022-11-28T17:11:51.889Z,9.90
2022-11-28T17:14:21.350Z,9.89
2022-11-28T17:16:49.289Z,9.89
2022-11-28T17:19:17.648Z,9.89
2022-11-28T17:21:47.863Z,9.90
2022-11-28T17:24:18.714Z,9.91
2022-11-28T17:26:47.190Z,9.91
2022-11-28T17:29:16.667Z,9.92
2022-11-28T17:31:47.380Z,9.94
2022-11-28T17:34:17.453Z,9.93
2022-11-28T17:36:45.730Z,9.93
2022-11-28T17:39:13.858Z,9.92
2022-11-28T17:41:42.390Z,9.91
2022-11-28T17:44:22.334Z,9.92
2022-11-28T17:46:54.663Z,9.91
2022-11-28T17:49:23.541Z,9.92
2022-11-28T17:51:52.561Z,9.94
2022-11-28T17:54:27.665Z,9.95
2022-11-28T17:57:01.705Z,9.97
2022-11-28T17:59:29.610Z,9.99
2022-11-28T18:01:58.952Z,10.01
2022-11-28T18:04:27.002Z,10.03
2022-11-28T18:06:54.808Z,10.01
2022-11-28T18:09:22.642Z,10.02
2022-11-28T18:11:51.715Z,10.05
2022-11-28T18:14:20.061Z,10.05
2022-11-28T18:16:48.105Z,10.06
2022-11-28T18:19:17.407Z,10.08
2022-11-28T18:21:45.224Z,10.08
2022-11-28T18:24:17.077Z,10.10
2022-11-28T18:26:44.955Z,10.09
2022-11-28T18:29:13.088Z,10.07
2022-11-28T18:31:40.898Z,10.08
2022-11-28T18:34:09.569Z,10.09
2022-11-28T18:36:40.038Z,10.11
2022-11-28T18:39:10.074Z,10.11
2022-11-28T18:41:40.061Z,10.13
2022-11-28T18:44:08.139Z,10.12
2022-11-28T18:46:36.457Z,10.13
2022-11-28T18:49:05.600Z,10.15
2022-11-28T18:51:35.193Z,10.17
2022-11-28T18:54:06.249Z,10.16
2022-11-28T18:56:34.091Z,10.16
2022-11-28T18:59:02.378Z,10.16
2022-11-28T19:01:32.075Z,10.17
2022-11-28T19:04:02.832Z,10.20
2022-11-28T19:06:30.996Z,10.22
2022-11-28T19:09:00.585Z,10.21
2022-11-28T19:11:30.600Z,10.22
2022-11-28T19:14:00.650Z,10.21
2022-11-28T19:16:29.884Z,10.21
2022-11-28T19:18:58.452Z,10.20
2022-11-28T19:21:28.854Z,10.19
2022-11-28T19:23:58.048Z,10.18
2022-11-28T19:26:28.039Z,10.20
2022-11-28T19:28:59.531Z,10.21
2022-11-28T19:31:29.088Z,10.21
2022-11-28T19:34:01.538Z,10.22
2022-11-28T19:36:30.256Z,10.21
2022-11-28T19:38:58.625Z,10.23
2022-11-28T19:41:26.994Z,10.24
2022-11-28T19:43:54.863Z,10.23
2022-11-28T19:46:24.652Z,10.25
2022-11-28T19:48:52.635Z,10.25
2022-11-28T19:51:21.130Z,10.26
2022-11-28T19:53:48.994Z,10.27
2022-11-28T19:56:18.926Z,10.29
2022-11-28T19:58:48.673Z,10.26
2022-11-28T20:01:21.094Z,10.26
2022-11-28T20:03:50.479Z,10.26
2022-11-28T20:06:19.975Z,10.25
2022-11-28T20:08:48.642Z,10.25
2022-11-28T20:11:18.242Z,10.26
2022-11-28T20:13:46.855Z,10.26
2022-11-28T20:16:19.531Z,10.25
2022-11-28T20:18:47.496Z,10.25
2022-11-28T20:21:18.661Z,10.27
2022-11-28T20:23:49.451Z,10.28
2022-11-28T20:26:18.851Z,10.27
2022-11-28T20:28:49.219Z,10.28
2022-11-28T20:31:20.495Z,10.29
2022-11-28T20:33:48.867Z,10.29
2022-11-28T20:36:20.024Z,10.30
2022-11-28T20:38:48.141Z,10.31
2022-11-28T20:41:18.345Z,10.30
2022-11-28T20:43:46.557Z,10.28
2022-11-28T20:46:16.201Z,10.29
2022-11-28T20:48:44.490Z,10.29
2022-11-28T20:51:14.789Z,10.30
2022-11-28T20:53:45.147Z,10.30
2022-11-28T20:56:15.096Z,10.31
2022-11-28T20:58:43.151Z,10.30
2022-11-28T21:01:16.101Z,10.28
2022-11-28T21:03:44.344Z,10.29
2022-11-28T21:06:13.265Z,10.30
2022-11-28T21:08:41.503Z,10.33
2022-11-28T21:11:30.551Z,10.30
2022-11-28T21:14:10.454Z,10.29
2022-11-28T21:16:38.307Z,10.29
2022-11-28T21:19:09.004Z,10.30
2022-11-28T21:21:38.713Z,10.30
2022-11-28T21:24:09.671Z,10.29
2022-11-28T21:26:42.410Z,10.27
2022-11-28T21:29:13.794Z,10.27
2022-11-28T21:31:45.529Z,10.26
2022-11-28T21:34:15.545Z,10.26
2022-11-28T21:36:43.893Z,10.25
2022-11-28T21:39:15.324Z,10.26
2022-11-28T21:41:44.694Z,10.26
2022-11-28T21:44:12.489Z,10.28
2022-11-28T21:46:40.370Z,10.28
2022-11-28T21:49:08.257Z,10.30
2022-11-28T21:51:36.193Z,10.31
2022-11-28T21:54:04.362Z,10.30
2022-11-28T21:56:32.092Z,10.26
2022-11-28T21:59:01.340Z,10.29
2022-11-28T22:01:29.172Z,10.26
2022-11-28T22:04:02.111Z,10.31
2022-11-28T22:06:31.079Z,10.31
2022-11-28T22:08:59.462Z,10.29
2022-11-28T22:11:28.406Z,10.31
2022-11-28T22:13:56.304Z,10.32
2022-11-28T22:16:27.989Z,10.36
2022-11-28T22:18:58.866Z,10.35
2022-11-28T22:24:15.439Z,10.36
2022-11-28T22:26:43.266Z,10.37
2022-11-28T22:29:11.222Z,10.34
2022-11-28T22:31:40.541Z,10.34
2022-11-28T22:34:09.981Z,10.36
2022-11-28T22:36:38.698Z,10.34
2022-11-28T22:39:06.622Z,10.35
2022-11-28T22:41:34.542Z,10.39
2022-11-28T22:44:04.074Z,10.39
2022-11-28T22:46:32.555Z,10.39
2022-11-28T22:49:02.875Z,10.38
2022-11-28T22:51:31.662Z,10.38
2022-11-28T22:54:01.386Z,10.40
2022-11-28T22:56:30.913Z,10.42
2022-11-28T22:58:58.815Z,10.44
2022-11-28T23:01:28.526Z,10.47
2022-11-28T23:03:56.976Z,10.49
2022-11-28T23:06:28.511Z,10.49
2022-11-28T23:08:57.076Z,10.49
2022-11-28T23:11:26.605Z,10.49
2022-11-28T23:13:54.637Z,10.47
2022-11-28T23:16:24.806Z,10.42
2022-11-28T23:18:55.612Z,10.41
2022-11-28T23:21:25.053Z,10.44
2022-11-28T23:23:55.009Z,10.45
2022-11-28T23:26:25.422Z,10.46
2022-11-28T23:28:53.900Z,10.47
2022-11-28T23:31:23.779Z,10.47
2022-11-28T23:33:52.456Z,10.46
2022-11-28T23:36:23.567Z,10.45
2022-11-28T23:38:53.391Z,10.45
2022-11-28T23:41:22.762Z,10.47
2022-11-28T23:43:50.731Z,10.45
2022-11-28T23:46:20.133Z,10.40
2022-11-28T23:48:51.677Z,10.33
2022-11-28T23:51:21.092Z,10.35
2022-11-28T23:53:49.928Z,10.39
2022-11-28T23:56:20.616Z,10.42
2022-11-28T23:58:50.708Z,10.41
